createdAt,value
2018-09-26T00:01:41.703Z,99.90
2018-09-26T00:04:14.420Z,99.90
2018-09-26T00:06:42.600Z,99.90
2018-09-26T00:09:12.401Z,99.90
2018-09-26T00:11:40.573Z,99.90
2018-09-26T00:14:09.147Z,99.90
2018-09-26T00:16:37.991Z,99.90
2018-09-26T00:19:06.157Z,99.90
2018-09-26T00:21:34.371Z,99.90
2018-09-26T00:24:02.560Z,99.90
2018-09-26T00:26:30.882Z,99.90
2018-09-26T00:28:59.039Z,99.90
2018-09-26T00:31:27.208Z,99.90
2018-09-26T00:33:55.379Z,99.90
2018-09-26T00:36:23.600Z,99.90
2018-09-26T00:38:51.824Z,99.90
2018-09-26T00:41:19.974Z,99.90
2018-09-26T00:43:48.466Z,99.90
2018-09-26T00:46:16.755Z,99.90
2018-09-26T00:48:44.916Z,99.90
2018-09-26T00:51:13.096Z,99.90
2018-09-26T00:53:41.871Z,99.90
2018-09-26T00:56:10.043Z,99.90
2018-09-26T00:58:38.195Z,99.90
2018-09-26T01:01:06.457Z,99.90
2018-09-26T01:03:34.619Z,99.90
2018-09-26T01:06:02.808Z,99.90
2018-09-26T01:08:30.967Z,99.90
2018-09-26T01:10:59.155Z,99.90
2018-09-26T01:13:27.347Z,99.90
2018-09-26T01:15:55.514Z,99.90
2018-09-26T01:18:23.663Z,99.90
2018-09-26T01:20:51.883Z,99.90
2018-09-26T01:23:20.081Z,99.90
2018-09-26T01:25:48.272Z,99.90
2018-09-26T01:28:16.448Z,99.90
2018-09-26T01:30:44.625Z,99.90
2018-09-26T01:33:12.819Z,99.90
2018-09-26T01:35:40.977Z,99.90
2018-09-26T01:38:09.137Z,99.90
2018-09-26T01:40:37.580Z,99.90
2018-09-26T01:43:05.754Z,99.90
2018-09-26T01:45:33.911Z,99.90
2018-09-26T01:48:02.428Z,99.90
2018-09-26T01:50:30.593Z,99.90
2018-09-26T01:52:58.758Z,99.90
2018-09-26T01:55:26.959Z,99.90
2018-09-26T01:57:55.175Z,99.90
2018-09-26T02:00:23.449Z,99.90
2018-09-26T02:02:51.623Z,99.90
2018-09-26T02:05:19.875Z,99.90
2018-09-26T02:07:48.041Z,99.90
2018-09-26T02:10:16.303Z,99.90
2018-09-26T02:12:44.521Z,99.90
2018-09-26T02:15:12.672Z,99.90
2018-09-26T02:17:40.844Z,99.90
2018-09-26T02:20:09.006Z,99.90
2018-09-26T02:22:37.151Z,99.90
2018-09-26T02:25:05.308Z,99.90
2018-09-26T02:27:33.461Z,99.90
2018-09-26T02:30:01.664Z,99.90
2018-09-26T02:32:29.959Z,99.90
2018-09-26T02:34:58.119Z,99.90
2018-09-26T02:37:26.294Z,99.90
2018-09-26T02:39:54.476Z,99.90
2018-09-26T02:42:22.633Z,99.90
2018-09-26T02:44:50.879Z,99.90
2018-09-26T02:47:19.051Z,99.90
2018-09-26T02:49:47.238Z,99.90
2018-09-26T02:52:15.420Z,99.90
2018-09-26T02:54:43.618Z,99.90
2018-09-26T02:57:11.789Z,99.90
2018-09-26T02:59:40.028Z,99.90
2018-09-26T03:02:08.214Z,99.90
2018-09-26T03:04:36.386Z,99.90
2018-09-26T03:07:04.667Z,99.90
2018-09-26T03:09:32.843Z,99.90
2018-09-26T03:12:01.031Z,99.90
2018-09-26T03:14:29.215Z,99.90
2018-09-26T03:16:57.390Z,99.90
2018-09-26T03:19:25.546Z,99.90
2018-09-26T03:21:53.807Z,99.90
2018-09-26T03:24:21.959Z,99.90
2018-09-26T03:26:50.132Z,99.90
2018-09-26T03:29:18.284Z,99.90
2018-09-26T03:31:46.453Z,99.90
2018-09-26T03:34:14.603Z,99.90
2018-09-26T03:36:42.774Z,99.90
2018-09-26T03:39:11.106Z,99.90
2018-09-26T03:41:39.285Z,99.90
2018-09-26T03:44:07.439Z,99.90
2018-09-26T03:46:35.701Z,99.90
2018-09-26T03:49:03.850Z,99.90
2018-09-26T03:51:32.015Z,99.90
2018-09-26T03:54:00.193Z,99.90
2018-09-26T03:56:28.371Z,99.90
2018-09-26T03:58:56.538Z,99.90
2018-09-26T04:01:24.864Z,99.90
2018-09-26T04:03:53.028Z,99.90
2018-09-26T04:06:21.191Z,99.90
2018-09-26T04:08:49.365Z,99.90
2018-09-26T04:11:17.548Z,99.90
2018-09-26T04:13:45.760Z,99.90
2018-09-26T04:16:13.919Z,99.90
2018-09-26T04:18:42.091Z,99.90
2018-09-26T04:21:10.244Z,99.90
2018-09-26T04:23:38.414Z,99.90
2018-09-26T04:26:06.807Z,99.90
2018-09-26T04:28:34.935Z,99.90
2018-09-26T04:31:03.115Z,99.90
2018-09-26T04:33:31.398Z,99.90
2018-09-26T04:36:00.457Z,99.90
2018-09-26T04:38:28.750Z,99.90
2018-09-26T04:40:57.248Z,99.90
2018-09-26T04:43:25.487Z,99.90
2018-09-26T04:45:53.711Z,99.90
2018-09-26T04:48:22.013Z,99.90
2018-09-26T04:50:50.252Z,99.90
2018-09-26T04:53:18.399Z,99.90
2018-09-26T04:55:46.592Z,99.90
2018-09-26T04:58:14.784Z,99.90
2018-09-26T05:00:42.906Z,99.90
2018-09-26T05:03:11.204Z,99.90
2018-09-26T05:05:39.373Z,99.90
2018-09-26T05:08:07.568Z,99.90
2018-09-26T05:10:35.864Z,99.90
2018-09-26T05:13:04.048Z,99.90
2018-09-26T05:15:32.215Z,99.90
2018-09-26T05:18:00.574Z,99.90
2018-09-26T05:20:28.762Z,99.90
2018-09-26T05:22:57.013Z,99.90
2018-09-26T05:25:25.191Z,99.90
2018-09-26T05:27:53.366Z,99.90
2018-09-26T05:30:21.564Z,99.90
2018-09-26T05:32:49.736Z,99.90
2018-09-26T05:35:18.152Z,99.90
2018-09-26T05:37:46.307Z,99.90
2018-09-26T05:40:14.777Z,99.90
2018-09-26T05:42:42.948Z,99.90
2018-09-26T05:45:11.240Z,99.90
2018-09-26T05:47:39.776Z,99.90
2018-09-26T05:50:07.969Z,99.90
2018-09-26T05:52:43.377Z,99.90
2018-09-26T05:55:26.511Z,99.90
2018-09-26T05:57:55.644Z,99.90
2018-09-26T06:00:23.813Z,99.90
2018-09-26T06:02:51.975Z,99.90
2018-09-26T06:05:20.378Z,99.90
2018-09-26T06:07:48.510Z,99.90
2018-09-26T06:10:17.013Z,99.90
2018-09-26T06:12:45.410Z,99.90
2018-09-26T06:15:13.663Z,99.90
2018-09-26T06:17:41.867Z,99.90
2018-09-26T06:20:10.037Z,99.90
2018-09-26T06:22:38.366Z,99.90
2018-09-26T06:25:06.831Z,99.90
2018-09-26T06:27:35.165Z,99.90
2018-09-26T06:30:03.326Z,99.90
2018-09-26T06:32:31.499Z,99.90
2018-09-26T06:34:59.731Z,99.90
2018-09-26T06:37:27.912Z,99.90
2018-09-26T06:39:56.184Z,99.90
2018-09-26T06:42:24.355Z,99.90
2018-09-26T06:44:52.519Z,99.90
2018-09-26T06:47:20.684Z,99.90
2018-09-26T06:49:48.824Z,99.90
2018-09-26T06:52:17.021Z,99.90
2018-09-26T06:54:45.331Z,99.90
2018-09-26T06:57:13.519Z,99.90
2018-09-26T06:59:41.680Z,99.90
2018-09-26T07:02:09.846Z,99.90
2018-09-26T07:04:38.016Z,99.90
2018-09-26T07:07:06.174Z,99.90
2018-09-26T07:09:34.346Z,99.90
2018-09-26T07:12:02.893Z,99.90
2018-09-26T07:14:31.202Z,99.90
2018-09-26T07:16:59.368Z,99.90
2018-09-26T07:19:27.575Z,99.90
2018-09-26T07:21:57.772Z,99.90
2018-09-26T07:24:32.218Z,99.90
2018-09-26T07:27:02.795Z,99.90
2018-09-26T07:29:30.967Z,99.90
2018-09-26T07:31:59.137Z,99.90
2018-09-26T07:34:32.680Z,99.90
2018-09-26T07:37:01.233Z,99.90
2018-09-26T07:39:29.461Z,99.90
2018-09-26T07:41:57.779Z,99.90
2018-09-26T07:44:25.981Z,99.90
2018-09-26T07:46:54.281Z,99.90
2018-09-26T07:49:22.639Z,99.20
2018-09-26T07:51:50.839Z,98.50
2018-09-26T07:54:19.363Z,98.70
2018-09-26T07:56:48.038Z,96.70
2018-09-26T07:59:16.503Z,96.00
2018-09-26T08:01:45.103Z,94.90
2018-09-26T08:04:13.315Z,94.50
2018-09-26T08:06:45.048Z,92.80
2018-09-26T08:09:15.468Z,90.70
2018-09-26T08:11:46.055Z,88.00
2018-09-26T08:14:15.417Z,85.20
2018-09-26T08:16:46.162Z,83.00
2018-09-26T08:19:15.660Z,81.50
2018-09-26T08:21:48.312Z,78.10
2018-09-26T08:24:16.591Z,77.30
2018-09-26T08:26:44.720Z,75.70
2018-09-26T08:29:12.931Z,75.70
2018-09-26T08:31:41.298Z,72.50
2018-09-26T08:34:09.548Z,71.90
2018-09-26T08:36:37.819Z,67.80
2018-09-26T08:39:09.134Z,66.40
2018-09-26T08:41:37.717Z,66.10
2018-09-26T08:44:05.964Z,64.80
2018-09-26T08:46:34.381Z,63.80
2018-09-26T08:49:02.540Z,61.10
2018-09-26T08:51:30.738Z,59.50
2018-09-26T08:53:58.944Z,57.80
2018-09-26T08:56:27.129Z,56.50
2018-09-26T08:58:57.493Z,55.80
2018-09-26T09:01:30.915Z,55.20
2018-09-26T09:03:59.190Z,55.20
2018-09-26T09:06:27.376Z,54.20
2018-09-26T09:08:55.578Z,53.20
2018-09-26T09:11:23.762Z,54.00
2018-09-26T09:13:51.958Z,54.90
2018-09-26T09:16:20.151Z,54.70
2018-09-26T09:18:48.319Z,54.20
2018-09-26T09:21:16.561Z,52.90
2018-09-26T09:23:44.732Z,52.90
2018-09-26T09:26:12.990Z,53.20
2018-09-26T09:28:41.133Z,53.30
2018-09-26T09:31:09.295Z,53.00
2018-09-26T09:33:37.795Z,54.10
2018-09-26T09:36:06.098Z,54.70
2018-09-26T09:38:34.247Z,54.70
2018-09-26T09:41:02.428Z,55.20
2018-09-26T09:43:32.260Z,54.10
2018-09-26T09:46:00.426Z,52.80
2018-09-26T09:48:28.616Z,51.30
2018-09-26T09:50:56.775Z,50.70
2018-09-26T09:53:25.880Z,49.70
2018-09-26T09:55:54.112Z,49.20
2018-09-26T09:58:22.684Z,48.70
2018-09-26T10:00:56.299Z,47.40
2018-09-26T10:03:24.454Z,47.80
2018-09-26T10:05:53.005Z,46.60
2018-09-26T10:08:21.355Z,46.70
2018-09-26T10:10:49.478Z,46.70
2018-09-26T10:13:17.632Z,45.60
2018-09-26T10:15:45.828Z,46.10
2018-09-26T10:18:14.307Z,46.50
2018-09-26T10:20:42.470Z,45.40
2018-09-26T10:23:11.030Z,44.40
2018-09-26T10:25:39.187Z,44.40
2018-09-26T10:28:07.415Z,44.60
2018-09-26T10:30:35.739Z,44.30
2018-09-26T10:33:09.379Z,44.20
2018-09-26T10:35:37.536Z,43.60
2018-09-26T10:38:05.736Z,42.70
2018-09-26T10:40:33.859Z,43.20
2018-09-26T10:43:02.024Z,42.80
2018-09-26T10:45:30.251Z,41.80
2018-09-26T10:47:58.464Z,42.40
2018-09-26T10:50:26.771Z,42.40
2018-09-26T10:52:54.826Z,41.80
2018-09-26T10:55:23.007Z,40.50
2018-09-26T10:57:51.168Z,40.70
2018-09-26T11:00:19.336Z,39.80
2018-09-26T11:02:47.510Z,40.20
2018-09-26T11:05:15.688Z,39.90
2018-09-26T11:07:43.839Z,39.70
2018-09-26T11:10:12.165Z,39.80
2018-09-26T11:12:40.432Z,39.30
2018-09-26T11:15:08.580Z,39.90
2018-09-26T11:17:36.732Z,39.20
2018-09-26T11:20:04.994Z,38.90
2018-09-26T11:22:33.158Z,39.90
2018-09-26T11:25:01.335Z,38.20
2018-09-26T11:27:29.503Z,38.60
2018-09-26T11:29:57.666Z,38.20
2018-09-26T11:32:25.954Z,37.70
2018-09-26T11:34:54.025Z,36.90
2018-09-26T11:37:22.196Z,36.80
2018-09-26T11:39:50.375Z,36.90
2018-09-26T11:42:18.558Z,36.90
2018-09-26T11:44:46.867Z,36.80
2018-09-26T11:47:14.967Z,36.00
2018-09-26T11:49:43.333Z,36.90
2018-09-26T11:52:11.532Z,36.00
2018-09-26T11:54:39.703Z,35.40
2018-09-26T11:57:08.075Z,35.20
2018-09-26T11:59:36.258Z,35.40
2018-09-26T12:02:04.528Z,36.10
2018-09-26T12:04:32.700Z,36.60
2018-09-26T12:07:01.126Z,35.70
2018-09-26T12:09:29.328Z,35.00
2018-09-26T12:11:57.564Z,34.20
2018-09-26T12:14:25.767Z,34.30
2018-09-26T12:16:54.012Z,34.70
2018-09-26T12:19:22.253Z,34.90
2018-09-26T12:21:50.401Z,35.20
2018-09-26T12:24:18.626Z,34.30
2018-09-26T12:26:46.776Z,34.20
2018-09-26T12:29:14.986Z,34.20
2018-09-26T12:31:43.171Z,34.80
2018-09-26T12:34:11.371Z,35.60
2018-09-26T12:36:39.599Z,33.30
2018-09-26T12:39:08.769Z,34.40
2018-09-26T12:41:37.080Z,33.10
2018-09-26T12:44:05.286Z,33.20
2018-09-26T12:46:33.658Z,35.20
2018-09-26T12:49:01.837Z,34.20
2018-09-26T12:51:30.060Z,33.70
2018-09-26T12:53:58.622Z,33.70
2018-09-26T12:56:26.988Z,33.30
2018-09-26T12:58:55.202Z,33.60
2018-09-26T13:01:23.563Z,33.40
2018-09-26T13:03:51.862Z,33.00
2018-09-26T13:06:20.056Z,33.20
2018-09-26T13:08:48.296Z,34.20
2018-09-26T13:11:16.470Z,33.40
2018-09-26T13:13:44.656Z,32.90
2018-09-26T13:16:12.881Z,32.50
2018-09-26T13:18:41.045Z,32.60
2018-09-26T13:21:09.226Z,32.70
2018-09-26T13:23:37.416Z,32.60
2018-09-26T13:26:05.624Z,32.90
2018-09-26T13:28:33.802Z,34.50
2018-09-26T13:31:01.977Z,34.30
2018-09-26T13:33:30.342Z,34.10
2018-09-26T13:35:58.779Z,32.40
2018-09-26T13:38:26.980Z,32.50
2018-09-26T13:40:55.176Z,32.40
2018-09-26T13:43:23.367Z,32.20
2018-09-26T13:45:51.645Z,32.20
2018-09-26T13:48:19.852Z,32.50
2018-09-26T13:50:48.014Z,32.90
2018-09-26T13:53:16.209Z,33.30
2018-09-26T13:55:44.638Z,32.50
2018-09-26T13:58:12.881Z,32.90
2018-09-26T14:00:41.021Z,32.50
2018-09-26T14:03:09.211Z,31.70
2018-09-26T14:05:37.448Z,33.70
2018-09-26T14:08:05.744Z,32.90
2018-09-26T14:10:34.075Z,32.80
2018-09-26T14:13:02.304Z,32.40
2018-09-26T14:15:30.493Z,32.90
2018-09-26T14:17:59.169Z,33.50
2018-09-26T14:20:44.411Z,33.40
2018-09-26T14:23:12.750Z,35.80
2018-09-26T14:25:41.259Z,34.90
2018-09-26T14:28:09.552Z,35.20
2018-09-26T14:30:38.276Z,34.70
2018-09-26T14:33:06.524Z,35.40
2018-09-26T14:35:34.779Z,36.20
2018-09-26T14:38:03.046Z,36.20
2018-09-26T14:40:31.287Z,37.20
2018-09-26T14:42:59.689Z,38.80
2018-09-26T14:45:28.002Z,38.50
2018-09-26T14:47:56.320Z,39.80
2018-09-26T14:50:25.231Z,39.90
2018-09-26T14:52:53.442Z,40.20
2018-09-26T14:55:21.781Z,40.50
2018-09-26T14:57:50.032Z,40.60
2018-09-26T15:00:18.465Z,40.80
2018-09-26T15:02:46.747Z,41.40
2018-09-26T15:05:14.996Z,41.80
2018-09-26T15:07:43.256Z,40.70
2018-09-26T15:10:11.599Z,40.40
2018-09-26T15:12:39.880Z,43.40
2018-09-26T15:15:08.139Z,43.50
2018-09-26T15:17:36.459Z,44.90
2018-09-26T15:20:05.245Z,44.90
2018-09-26T15:22:33.479Z,45.00
2018-09-26T15:25:01.723Z,46.40
2018-09-26T15:27:30.064Z,43.00
2018-09-26T15:29:58.604Z,44.00
2018-09-26T15:32:26.924Z,44.80
2018-09-26T15:34:55.190Z,45.60
2018-09-26T15:37:24.708Z,45.80
2018-09-26T15:39:53.024Z,46.70
2018-09-26T15:42:21.324Z,47.30
2018-09-26T15:44:49.918Z,45.10
2018-09-26T15:47:18.256Z,46.10
2018-09-26T15:49:46.547Z,47.80
2018-09-26T15:52:15.038Z,49.40
2018-09-26T15:54:43.399Z,49.40
2018-09-26T15:57:11.698Z,49.70
2018-09-26T15:59:39.983Z,48.40
2018-09-26T16:02:08.240Z,48.90
2018-09-26T16:04:36.374Z,47.30
2018-09-26T16:07:10.572Z,46.60
2018-09-26T16:09:38.817Z,46.40
2018-09-26T16:12:07.053Z,48.70
2018-09-26T16:14:35.178Z,49.70
2018-09-26T16:17:03.445Z,50.30
2018-09-26T16:19:31.684Z,52.00
2018-09-26T16:21:59.877Z,52.30
2018-09-26T16:24:28.061Z,52.70
2018-09-26T16:26:56.255Z,53.40
2018-09-26T16:29:24.406Z,54.10
2018-09-26T16:31:52.945Z,54.70
2018-09-26T16:34:21.344Z,55.10
2018-09-26T16:36:49.451Z,55.30
2018-09-26T16:39:17.750Z,55.70
2018-09-26T16:41:45.899Z,56.10
2018-09-26T16:44:14.505Z,56.50
2018-09-26T16:46:42.959Z,57.00
2018-09-26T16:49:11.302Z,57.40
2018-09-26T16:51:39.513Z,57.80
2018-09-26T16:54:08.626Z,58.10
2018-09-26T16:56:36.804Z,58.20
2018-09-26T16:59:05.132Z,58.40
2018-09-26T17:01:33.517Z,58.70
2018-09-26T17:04:03.849Z,59.00
2018-09-26T17:06:32.052Z,59.50
2018-09-26T17:09:00.965Z,60.10
2018-09-26T17:11:29.686Z,60.50
2018-09-26T17:13:57.947Z,61.50
2018-09-26T17:16:26.225Z,63.40
2018-09-26T17:18:55.351Z,64.70
2018-09-26T17:21:23.758Z,67.00
2018-09-26T17:23:52.800Z,69.30
2018-09-26T17:26:21.391Z,73.30
2018-09-26T17:28:49.719Z,76.90
2018-09-26T17:31:17.815Z,78.70
2018-09-26T17:33:45.995Z,80.70
2018-09-26T17:36:14.679Z,82.70
2018-09-26T17:38:43.125Z,82.70
2018-09-26T17:41:16.869Z,83.00
2018-09-26T17:43:45.523Z,84.10
2018-09-26T17:46:13.703Z,85.30
2018-09-26T17:48:42.095Z,86.30
2018-09-26T17:51:14.013Z,88.20
2018-09-26T17:53:54.000Z,90.30
2018-09-26T17:56:22.493Z,91.00
2018-09-26T17:58:50.735Z,91.70
2018-09-26T18:01:27.451Z,92.20
2018-09-26T18:03:55.919Z,92.90
2018-09-26T18:06:24.392Z,93.50
2018-09-26T18:08:53.013Z,93.90
2018-09-26T18:11:21.580Z,94.20
2018-09-26T18:13:49.791Z,94.50
2018-09-26T18:16:18.054Z,95.20
2018-09-26T18:21:42.608Z,95.50
2018-09-26T18:24:10.920Z,96.20
2018-09-26T18:26:39.143Z,96.40
2018-09-26T18:29:07.552Z,96.50
2018-09-26T18:31:35.744Z,96.80
2018-09-26T18:34:05.419Z,97.30
2018-09-26T18:36:33.621Z,97.70
2018-09-26T18:39:04.000Z,98.30
2018-09-26T18:41:32.182Z,98.60
2018-09-26T18:44:00.637Z,99.20
2018-09-26T18:46:28.832Z,99.90
2018-09-26T18:48:57.048Z,99.90
2018-09-26T18:51:25.284Z,99.90
2018-09-26T18:53:54.157Z,99.90
2018-09-26T18:56:22.647Z,99.90
2018-09-26T18:58:50.878Z,99.90
2018-09-26T19:01:19.038Z,99.90
2018-09-26T19:03:47.369Z,99.90
2018-09-26T19:06:15.634Z,99.90
2018-09-26T19:08:43.898Z,99.90
2018-09-26T19:11:12.106Z,99.90
2018-09-26T19:13:40.308Z,99.90
2018-09-26T19:16:08.487Z,99.90
2018-09-26T19:18:36.799Z,99.90
2018-09-26T19:21:05.074Z,99.90
2018-09-26T19:23:33.245Z,99.90
2018-09-26T19:26:01.441Z,99.90
2018-09-26T19:28:29.655Z,99.90
2018-09-26T19:30:58.097Z,99.90
2018-09-26T19:33:26.399Z,99.90
2018-09-26T19:35:54.767Z,99.90
2018-09-26T19:38:22.988Z,99.90
2018-09-26T19:40:51.236Z,99.90
2018-09-26T19:43:19.496Z,99.90
2018-09-26T19:45:47.729Z,99.90
2018-09-26T19:48:16.004Z,99.90
2018-09-26T19:50:44.163Z,99.90
2018-09-26T19:53:12.393Z,99.90
2018-09-26T19:55:40.907Z,99.90
2018-09-26T19:58:09.139Z,99.90
2018-09-26T20:00:37.304Z,99.90
2018-09-26T20:03:06.880Z,99.90
2018-09-26T20:05:35.147Z,99.90
2018-09-26T20:08:03.533Z,99.90
2018-09-26T20:10:32.487Z,99.90
2018-09-26T20:13:00.933Z,99.90
2018-09-26T20:15:30.149Z,99.90
2018-09-26T20:17:58.843Z,99.90
2018-09-26T20:20:27.424Z,99.90
2018-09-26T20:22:56.325Z,99.90
2018-09-26T20:25:26.461Z,99.90
2018-09-26T20:27:55.883Z,99.90
2018-09-26T20:30:26.603Z,99.90
2018-09-26T20:32:56.113Z,99.90
2018-09-26T20:35:25.359Z,99.90
2018-09-26T20:37:55.426Z,99.90
2018-09-26T20:40:28.675Z,99.90
2018-09-26T20:42:58.670Z,99.90
2018-09-26T20:45:27.063Z,99.90
2018-09-26T20:47:56.125Z,99.90
2018-09-26T20:50:24.593Z,99.90
2018-09-26T20:52:54.077Z,99.90
2018-09-26T20:55:22.359Z,99.90
2018-09-26T20:57:50.532Z,99.90
2018-09-26T21:00:19.009Z,99.90
2018-09-26T21:02:47.962Z,99.90
2018-09-26T21:05:16.560Z,99.90
2018-09-26T21:07:45.179Z,99.90
2018-09-26T21:10:13.970Z,99.90
2018-09-26T21:12:42.387Z,99.90
2018-09-26T21:15:11.516Z,99.90
2018-09-26T21:17:43.361Z,99.90
2018-09-26T21:20:11.542Z,99.90
2018-09-26T21:22:39.957Z,99.90
2018-09-26T21:25:08.222Z,99.90
2018-09-26T21:27:36.518Z,99.90
2018-09-26T21:30:04.924Z,99.90
2018-09-26T21:32:33.142Z,99.90
2018-09-26T21:35:01.325Z,99.90
2018-09-26T21:37:29.556Z,99.90
2018-09-26T21:39:57.775Z,99.90
2018-09-26T21:42:26.003Z,99.90
2018-09-26T21:44:54.222Z,99.90
2018-09-26T21:47:22.448Z,99.90
2018-09-26T21:49:50.669Z,99.90
2018-09-26T21:52:19.355Z,99.90
2018-09-26T21:54:47.993Z,99.90
2018-09-26T21:57:16.184Z,99.90
2018-09-26T21:59:44.411Z,99.90
2018-09-26T22:02:12.675Z,99.90
2018-09-26T22:04:40.867Z,99.90
2018-09-26T22:07:09.195Z,99.90
2018-09-26T22:09:37.442Z,99.90
2018-09-26T22:12:05.666Z,99.90
2018-09-26T22:14:33.875Z,99.90
2018-09-26T22:17:02.168Z,99.90
2018-09-26T22:19:30.479Z,99.90
2018-09-26T22:21:58.685Z,99.90
2018-09-26T22:24:26.925Z,99.90
2018-09-26T22:26:55.144Z,99.90
2018-09-26T22:29:23.343Z,99.90
2018-09-26T22:31:51.578Z,99.90
2018-09-26T22:34:19.793Z,99.90
2018-09-26T22:36:48.072Z,99.90
2018-09-26T22:39:16.280Z,99.90
2018-09-26T22:41:44.571Z,99.90
2018-09-26T22:44:12.792Z,99.90
2018-09-26T22:46:40.995Z,99.90
2018-09-26T22:49:09.294Z,99.90
2018-09-26T22:51:37.551Z,99.90
2018-09-26T22:54:05.760Z,99.90
